sensor_id;sensor_type;location;lat;lon;timestamp;P1;durP1;ratioP1;P2;durP2;ratioP2
39454;SDS011;25155;41.890;23.446;2023-07-13T00:01:53;6.80;;;5.05;;
39454;SDS011;25155;41.890;23.446;2023-07-13T00:04:20;6.05;;;4.72;;
39454;SDS011;25155;41.890;23.446;2023-07-13T00:06:50;5.47;;;4.40;;
39454;SDS011;25155;41.890;23.446;2023-07-13T00:09:20;5.88;;;4.72;;
39454;SDS011;25155;41.890;23.446;2023-07-13T00:11:50;5.95;;;4.65;;
39454;SDS011;25155;41.890;23.446;2023-07-13T00:14:18;6.00;;;4.53;;
39454;SDS011;25155;41.890;23.446;2023-07-13T00:16:45;5.95;;;4.85;;
39454;SDS011;25155;41.890;23.446;2023-07-13T00:19:13;6.68;;;5.28;;
39454;SDS011;25155;41.890;23.446;2023-07-13T00:21:41;7.13;;;5.68;;
39454;SDS011;25155;41.890;23.446;2023-07-13T00:24:09;6.75;;;5.72;;
39454;SDS011;25155;41.890;23.446;2023-07-13T00:26:40;5.72;;;4.55;;
39454;SDS011;25155;41.890;23.446;2023-07-13T00:29:11;10.57;;;6.32;;
39454;SDS011;25155;41.890;23.446;2023-07-13T00:31:38;7.28;;;5.32;;
39454;SDS011;25155;41.890;23.446;2023-07-13T00:34:05;6.05;;;4.53;;
39454;SDS011;25155;41.890;23.446;2023-07-13T00:36:32;4.85;;;3.85;;
39454;SDS011;25155;41.890;23.446;2023-07-13T00:39:00;5.38;;;4.10;;
39454;SDS011;25155;41.890;23.446;2023-07-13T00:41:29;6.15;;;4.50;;
39454;SDS011;25155;41.890;23.446;2023-07-13T00:43:58;4.43;;;3.40;;
39454;SDS011;25155;41.890;23.446;2023-07-13T00:46:27;4.50;;;3.40;;
39454;SDS011;25155;41.890;23.446;2023-07-13T00:48:56;5.32;;;3.72;;
39454;SDS011;25155;41.890;23.446;2023-07-13T00:51:28;4.37;;;3.30;;
39454;SDS011;25155;41.890;23.446;2023-07-13T00:54:00;4.65;;;3.50;;
39454;SDS011;25155;41.890;23.446;2023-07-13T00:56:31;4.78;;;3.40;;
39454;SDS011;25155;41.890;23.446;2023-07-13T00:59:01;5.00;;;3.60;;
39454;SDS011;25155;41.890;23.446;2023-07-13T01:01:31;6.47;;;4.18;;
39454;SDS011;25155;41.890;23.446;2023-07-13T01:03:58;7.00;;;5.25;;
39454;SDS011;25155;41.890;23.446;2023-07-13T01:06:25;6.43;;;5.22;;
39454;SDS011;25155;41.890;23.446;2023-07-13T01:08:52;6.82;;;5.20;;
39454;SDS011;25155;41.890;23.446;2023-07-13T01:11:20;6.53;;;5.13;;
39454;SDS011;25155;41.890;23.446;2023-07-13T01:13:47;6.53;;;4.60;;
39454;SDS011;25155;41.890;23.446;2023-07-13T01:16:17;5.00;;;4.38;;
39454;SDS011;25155;41.890;23.446;2023-07-13T01:18:50;4.97;;;3.90;;
39454;SDS011;25155;41.890;23.446;2023-07-13T01:21:19;5.30;;;3.88;;
39454;SDS011;25155;41.890;23.446;2023-07-13T01:23:46;6.28;;;3.67;;
39454;SDS011;25155;41.890;23.446;2023-07-13T01:26:13;7.30;;;5.80;;
39454;SDS011;25155;41.890;23.446;2023-07-13T01:28:40;6.40;;;4.85;;
39454;SDS011;25155;41.890;23.446;2023-07-13T01:31:07;6.65;;;5.03;;
39454;SDS011;25155;41.890;23.446;2023-07-13T01:33:36;6.50;;;4.53;;
39454;SDS011;25155;41.890;23.446;2023-07-13T01:36:04;6.00;;;4.40;;
39454;SDS011;25155;41.890;23.446;2023-07-13T01:38:33;5.03;;;3.95;;
39454;SDS011;25155;41.890;23.446;2023-07-13T01:41:01;5.97;;;4.40;;
39454;SDS011;25155;41.890;23.446;2023-07-13T01:43:29;5.45;;;3.97;;
39454;SDS011;25155;41.890;23.446;2023-07-13T01:45:58;5.18;;;4.03;;
39454;SDS011;25155;41.890;23.446;2023-07-13T01:48:25;5.72;;;4.60;;
39454;SDS011;25155;41.890;23.446;2023-07-13T01:50:52;6.18;;;5.00;;
39454;SDS011;25155;41.890;23.446;2023-07-13T01:53:19;5.68;;;4.40;;
39454;SDS011;25155;41.890;23.446;2023-07-13T01:55:47;6.45;;;4.78;;
39454;SDS011;25155;41.890;23.446;2023-07-13T01:58:15;6.05;;;4.63;;
39454;SDS011;25155;41.890;23.446;2023-07-13T02:00:42;5.65;;;4.30;;
39454;SDS011;25155;41.890;23.446;2023-07-13T02:03:09;6.70;;;5.40;;
39454;SDS011;25155;41.890;23.446;2023-07-13T02:05:36;6.43;;;4.75;;
39454;SDS011;25155;41.890;23.446;2023-07-13T02:08:03;7.00;;;5.50;;
39454;SDS011;25155;41.890;23.446;2023-07-13T02:10:31;6.85;;;5.18;;
39454;SDS011;25155;41.890;23.446;2023-07-13T02:12:59;6.22;;;5.43;;
39454;SDS011;25155;41.890;23.446;2023-07-13T02:15:26;6.75;;;5.28;;
39454;SDS011;25155;41.890;23.446;2023-07-13T02:17:53;7.90;;;5.80;;
39454;SDS011;25155;41.890;23.446;2023-07-13T02:20:20;6.13;;;5.07;;
39454;SDS011;25155;41.890;23.446;2023-07-13T02:22:48;5.90;;;4.53;;
39454;SDS011;25155;41.890;23.446;2023-07-13T02:25:15;5.50;;;4.25;;
39454;SDS011;25155;41.890;23.446;2023-07-13T02:27:42;6.28;;;4.40;;
39454;SDS011;25155;41.890;23.446;2023-07-13T02:30:11;8.75;;;5.85;;
39454;SDS011;25155;41.890;23.446;2023-07-13T02:32:41;6.80;;;5.60;;
39454;SDS011;25155;41.890;23.446;2023-07-13T02:35:10;6.25;;;4.85;;
39454;SDS011;25155;41.890;23.446;2023-07-13T02:37:37;6.05;;;4.60;;
39454;SDS011;25155;41.890;23.446;2023-07-13T02:40:05;5.10;;;3.92;;
39454;SDS011;25155;41.890;23.446;2023-07-13T02:42:33;5.68;;;4.50;;
39454;SDS011;25155;41.890;23.446;2023-07-13T02:45:01;5.57;;;3.97;;
39454;SDS011;25155;41.890;23.446;2023-07-13T02:47:31;5.13;;;4.10;;
39454;SDS011;25155;41.890;23.446;2023-07-13T02:49:59;4.75;;;3.55;;
39454;SDS011;25155;41.890;23.446;2023-07-13T02:52:26;4.70;;;3.58;;
39454;SDS011;25155;41.890;23.446;2023-07-13T02:54:54;5.80;;;4.30;;
39454;SDS011;25155;41.890;23.446;2023-07-13T02:57:21;7.40;;;5.53;;
39454;SDS011;25155;41.890;23.446;2023-07-13T02:59:48;11.15;;;9.43;;
39454;SDS011;25155;41.890;23.446;2023-07-13T03:02:15;10.35;;;8.27;;
39454;SDS011;25155;41.890;23.446;2023-07-13T03:04:44;9.38;;;6.97;;
39454;SDS011;25155;41.890;23.446;2023-07-13T03:07:11;8.60;;;5.72;;
39454;SDS011;25155;41.890;23.446;2023-07-13T03:09:39;7.72;;;5.20;;
39454;SDS011;25155;41.890;23.446;2023-07-13T03:12:06;9.32;;;6.55;;
39454;SDS011;25155;41.890;23.446;2023-07-13T03:14:34;6.95;;;5.57;;
39454;SDS011;25155;41.890;23.446;2023-07-13T03:17:01;10.68;;;7.25;;
39454;SDS011;25155;41.890;23.446;2023-07-13T03:19:28;7.93;;;5.78;;
39454;SDS011;25155;41.890;23.446;2023-07-13T03:21:57;6.18;;;4.93;;
39454;SDS011;25155;41.890;23.446;2023-07-13T03:24:24;7.68;;;5.03;;
39454;SDS011;25155;41.890;23.446;2023-07-13T03:26:52;6.88;;;5.20;;
39454;SDS011;25155;41.890;23.446;2023-07-13T03:29:19;5.97;;;4.80;;
39454;SDS011;25155;41.890;23.446;2023-07-13T03:31:46;5.72;;;4.60;;
39454;SDS011;25155;41.890;23.446;2023-07-13T03:34:13;8.27;;;5.93;;
39454;SDS011;25155;41.890;23.446;2023-07-13T03:36:41;6.15;;;4.72;;
39454;SDS011;25155;41.890;23.446;2023-07-13T03:39:09;6.97;;;5.10;;
39454;SDS011;25155;41.890;23.446;2023-07-13T03:41:37;6.40;;;5.47;;
39454;SDS011;25155;41.890;23.446;2023-07-13T03:44:04;7.07;;;5.72;;
39454;SDS011;25155;41.890;23.446;2023-07-13T03:46:31;6.30;;;5.40;;
39454;SDS011;25155;41.890;23.446;2023-07-13T03:48:59;6.20;;;5.07;;
39454;SDS011;25155;41.890;23.446;2023-07-13T03:51:28;7.18;;;5.60;;
39454;SDS011;25155;41.890;23.446;2023-07-13T03:53:55;7.97;;;6.25;;
39454;SDS011;25155;41.890;23.446;2023-07-13T03:56:24;8.77;;;6.97;;
39454;SDS011;25155;41.890;23.446;2023-07-13T03:58:52;7.70;;;5.90;;
39454;SDS011;25155;41.890;23.446;2023-07-13T04:01:20;7.78;;;6.15;;
39454;SDS011;25155;41.890;23.446;2023-07-13T04:03:49;8.88;;;7.28;;
39454;SDS011;25155;41.890;23.446;2023-07-13T04:06:16;8.02;;;6.43;;
39454;SDS011;25155;41.890;23.446;2023-07-13T04:08:47;7.68;;;6.57;;
39454;SDS011;25155;41.890;23.446;2023-07-13T04:11:16;8.68;;;6.55;;
39454;SDS011;25155;41.890;23.446;2023-07-13T04:13:46;10.15;;;7.75;;
39454;SDS011;25155;41.890;23.446;2023-07-13T04:16:13;8.13;;;6.22;;
39454;SDS011;25155;41.890;23.446;2023-07-13T04:18:41;8.02;;;6.55;;
39454;SDS011;25155;41.890;23.446;2023-07-13T04:21:09;9.02;;;6.72;;
39454;SDS011;25155;41.890;23.446;2023-07-13T04:23:36;6.78;;;5.47;;
39454;SDS011;25155;41.890;23.446;2023-07-13T04:26:04;8.50;;;7.10;;
39454;SDS011;25155;41.890;23.446;2023-07-13T04:28:33;7.03;;;6.10;;
39454;SDS011;25155;41.890;23.446;2023-07-13T04:31:02;8.93;;;7.25;;
39454;SDS011;25155;41.890;23.446;2023-07-13T04:33:29;10.32;;;9.23;;
39454;SDS011;25155;41.890;23.446;2023-07-13T04:35:57;12.77;;;9.60;;
39454;SDS011;25155;41.890;23.446;2023-07-13T04:38:28;10.13;;;8.70;;
39454;SDS011;25155;41.890;23.446;2023-07-13T04:40:59;11.50;;;8.45;;
39454;SDS011;25155;41.890;23.446;2023-07-13T04:43:27;10.10;;;9.00;;
39454;SDS011;25155;41.890;23.446;2023-07-13T04:45:56;13.15;;;10.32;;
39454;SDS011;25155;41.890;23.446;2023-07-13T04:48:25;13.07;;;9.90;;
39454;SDS011;25155;41.890;23.446;2023-07-13T04:50:55;12.07;;;9.75;;
39454;SDS011;25155;41.890;23.446;2023-07-13T04:53:24;10.82;;;9.63;;
39454;SDS011;25155;41.890;23.446;2023-07-13T04:55:52;13.40;;;10.20;;
39454;SDS011;25155;41.890;23.446;2023-07-13T04:58:19;11.52;;;9.80;;
39454;SDS011;25155;41.890;23.446;2023-07-13T05:00:46;12.30;;;10.82;;
39454;SDS011;25155;41.890;23.446;2023-07-13T05:03:14;9.95;;;8.77;;
39454;SDS011;25155;41.890;23.446;2023-07-13T05:05:43;13.20;;;10.95;;
39454;SDS011;25155;41.890;23.446;2023-07-13T05:08:10;12.65;;;10.73;;
39454;SDS011;25155;41.890;23.446;2023-07-13T05:10:37;14.10;;;11.85;;
39454;SDS011;25155;41.890;23.446;2023-07-13T05:13:04;15.88;;;13.32;;
39454;SDS011;25155;41.890;23.446;2023-07-13T05:15:32;13.90;;;12.50;;
39454;SDS011;25155;41.890;23.446;2023-07-13T05:18:00;14.23;;;12.77;;
39454;SDS011;25155;41.890;23.446;2023-07-13T05:20:27;11.38;;;10.18;;
39454;SDS011;25155;41.890;23.446;2023-07-13T05:22:56;13.30;;;11.90;;
39454;SDS011;25155;41.890;23.446;2023-07-13T05:25:23;12.68;;;10.90;;
39454;SDS011;25155;41.890;23.446;2023-07-13T05:27:50;13.15;;;10.43;;
39454;SDS011;25155;41.890;23.446;2023-07-13T05:30:17;13.75;;;12.00;;
39454;SDS011;25155;41.890;23.446;2023-07-13T05:32:45;14.38;;;12.80;;
39454;SDS011;25155;41.890;23.446;2023-07-13T05:35:12;14.52;;;12.88;;
39454;SDS011;25155;41.890;23.446;2023-07-13T05:37:39;13.82;;;12.38;;
39454;SDS011;25155;41.890;23.446;2023-07-13T05:40:08;14.13;;;12.65;;
39454;SDS011;25155;41.890;23.446;2023-07-13T05:42:36;13.15;;;11.75;;
39454;SDS011;25155;41.890;23.446;2023-07-13T05:45:03;13.60;;;11.70;;
39454;SDS011;25155;41.890;23.446;2023-07-13T05:47:31;14.43;;;12.65;;
39454;SDS011;25155;41.890;23.446;2023-07-13T05:49:57;13.88;;;12.32;;
39454;SDS011;25155;41.890;23.446;2023-07-13T05:52:25;12.50;;;11.20;;
39454;SDS011;25155;41.890;23.446;2023-07-13T05:54:52;11.23;;;9.30;;
39454;SDS011;25155;41.890;23.446;2023-07-13T05:57:20;14.18;;;12.05;;
39454;SDS011;25155;41.890;23.446;2023-07-13T05:59:47;13.50;;;12.10;;
39454;SDS011;25155;41.890;23.446;2023-07-13T06:02:14;17.05;;;15.35;;
39454;SDS011;25155;41.890;23.446;2023-07-13T06:04:42;19.02;;;16.33;;
39454;SDS011;25155;41.890;23.446;2023-07-13T06:07:09;18.58;;;15.25;;
39454;SDS011;25155;41.890;23.446;2023-07-13T06:09:36;16.45;;;13.65;;
39454;SDS011;25155;41.890;23.446;2023-07-13T06:12:04;17.90;;;15.88;;
39454;SDS011;25155;41.890;23.446;2023-07-13T06:14:33;15.75;;;14.15;;
39454;SDS011;25155;41.890;23.446;2023-07-13T06:17:00;18.05;;;16.13;;
39454;SDS011;25155;41.890;23.446;2023-07-13T06:19:28;16.83;;;15.00;;
39454;SDS011;25155;41.890;23.446;2023-07-13T06:21:55;12.30;;;11.00;;
39454;SDS011;25155;41.890;23.446;2023-07-13T06:24:23;16.35;;;14.10;;
39454;SDS011;25155;41.890;23.446;2023-07-13T06:26:51;14.82;;;12.38;;
39454;SDS011;25155;41.890;23.446;2023-07-13T06:29:18;15.77;;;14.07;;
39454;SDS011;25155;41.890;23.446;2023-07-13T06:31:46;16.48;;;14.43;;
39454;SDS011;25155;41.890;23.446;2023-07-13T06:34:13;16.77;;;14.73;;
39454;SDS011;25155;41.890;23.446;2023-07-13T06:36:41;12.60;;;11.30;;
39454;SDS011;25155;41.890;23.446;2023-07-13T06:39:08;15.68;;;14.07;;
39454;SDS011;25155;41.890;23.446;2023-07-13T06:41:35;16.13;;;14.00;;
39454;SDS011;25155;41.890;23.446;2023-07-13T06:44:04;16.20;;;13.85;;
39454;SDS011;25155;41.890;23.446;2023-07-13T06:46:31;14.75;;;13.18;;
39454;SDS011;25155;41.890;23.446;2023-07-13T06:49:00;15.80;;;14.13;;
39454;SDS011;25155;41.890;23.446;2023-07-13T06:51:27;23.58;;;17.48;;
39454;SDS011;25155;41.890;23.446;2023-07-13T06:53:54;16.02;;;14.43;;
39454;SDS011;25155;41.890;23.446;2023-07-13T06:56:21;14.30;;;12.80;;
39454;SDS011;25155;41.890;23.446;2023-07-13T06:58:48;13.15;;;11.75;;
39454;SDS011;25155;41.890;23.446;2023-07-13T07:01:15;16.13;;;14.52;;
39454;SDS011;25155;41.890;23.446;2023-07-13T07:03:43;15.02;;;13.10;;
39454;SDS011;25155;41.890;23.446;2023-07-13T07:06:15;13.93;;;12.52;;
39454;SDS011;25155;41.890;23.446;2023-07-13T07:08:43;13.55;;;12.15;;
39454;SDS011;25155;41.890;23.446;2023-07-13T07:11:12;12.45;;;11.15;;
39454;SDS011;25155;41.890;23.446;2023-07-13T07:13:43;17.63;;;15.73;;
39454;SDS011;25155;41.890;23.446;2023-07-13T07:16:10;17.40;;;14.68;;
39454;SDS011;25155;41.890;23.446;2023-07-13T07:18:37;17.45;;;14.20;;
39454;SDS011;25155;41.890;23.446;2023-07-13T07:21:04;14.40;;;12.90;;
39454;SDS011;25155;41.890;23.446;2023-07-13T07:23:33;12.80;;;10.82;;
39454;SDS011;25155;41.890;23.446;2023-07-13T07:26:00;14.88;;;13.27;;
39454;SDS011;25155;41.890;23.446;2023-07-13T07:28:28;14.15;;;11.73;;
39454;SDS011;25155;41.890;23.446;2023-07-13T07:30:56;11.55;;;10.15;;
39454;SDS011;25155;41.890;23.446;2023-07-13T07:33:25;13.43;;;10.57;;
39454;SDS011;25155;41.890;23.446;2023-07-13T07:35:52;15.88;;;14.18;;
39454;SDS011;25155;41.890;23.446;2023-07-13T07:38:19;14.48;;;11.85;;
39454;SDS011;25155;41.890;23.446;2023-07-13T07:40:48;14.80;;;12.35;;
39454;SDS011;25155;41.890;23.446;2023-07-13T07:43:15;13.18;;;10.38;;
39454;SDS011;25155;41.890;23.446;2023-07-13T07:45:43;13.70;;;11.20;;
39454;SDS011;25155;41.890;23.446;2023-07-13T07:48:11;12.50;;;10.45;;
39454;SDS011;25155;41.890;23.446;2023-07-13T07:50:38;11.48;;;10.05;;
39454;SDS011;25155;41.890;23.446;2023-07-13T07:53:06;10.40;;;8.85;;
39454;SDS011;25155;41.890;23.446;2023-07-13T07:55:35;12.38;;;9.80;;
39454;SDS011;25155;41.890;23.446;2023-07-13T07:58:04;12.18;;;10.02;;
39454;SDS011;25155;41.890;23.446;2023-07-13T08:00:31;11.93;;;10.73;;
39454;SDS011;25155;41.890;23.446;2023-07-13T08:02:58;10.15;;;9.10;;
39454;SDS011;25155;41.890;23.446;2023-07-13T08:05:26;10.90;;;9.80;;
39454;SDS011;25155;41.890;23.446;2023-07-13T08:07:53;10.90;;;9.80;;
39454;SDS011;25155;41.890;23.446;2023-07-13T08:10:20;11.80;;;10.60;;
39454;SDS011;25155;41.890;23.446;2023-07-13T08:12:47;14.02;;;9.90;;
39454;SDS011;25155;41.890;23.446;2023-07-13T08:15:16;10.27;;;9.23;;
39454;SDS011;25155;41.890;23.446;2023-07-13T08:17:46;10.55;;;8.63;;
39454;SDS011;25155;41.890;23.446;2023-07-13T08:20:14;11.10;;;9.63;;
39454;SDS011;25155;41.890;23.446;2023-07-13T08:22:41;11.45;;;10.20;;
39454;SDS011;25155;41.890;23.446;2023-07-13T08:25:08;10.90;;;8.90;;
39454;SDS011;25155;41.890;23.446;2023-07-13T08:27:35;8.90;;;7.47;;
39454;SDS011;25155;41.890;23.446;2023-07-13T08:30:03;9.38;;;8.32;;
39454;SDS011;25155;41.890;23.446;2023-07-13T08:32:32;10.57;;;9.20;;
39454;SDS011;25155;41.890;23.446;2023-07-13T08:34:59;13.77;;;10.90;;
39454;SDS011;25155;41.890;23.446;2023-07-13T08:37:26;12.70;;;10.18;;
39454;SDS011;25155;41.890;23.446;2023-07-13T08:39:53;9.77;;;8.77;;
39454;SDS011;25155;41.890;23.446;2023-07-13T08:42:26;8.85;;;7.72;;
39454;SDS011;25155;41.890;23.446;2023-07-13T08:45:02;9.30;;;8.30;;
39454;SDS011;25155;41.890;23.446;2023-07-13T08:47:41;11.88;;;10.30;;
39454;SDS011;25155;41.890;23.446;2023-07-13T08:50:13;9.50;;;8.25;;
39454;SDS011;25155;41.890;23.446;2023-07-13T08:52:46;11.25;;;9.65;;
39454;SDS011;25155;41.890;23.446;2023-07-13T08:55:14;10.07;;;8.32;;
39454;SDS011;25155;41.890;23.446;2023-07-13T09:00:13;7.82;;;7.03;;
39454;SDS011;25155;41.890;23.446;2023-07-13T09:02:45;9.23;;;8.07;;
39454;SDS011;25155;41.890;23.446;2023-07-13T09:05:18;9.82;;;8.82;;
39454;SDS011;25155;41.890;23.446;2023-07-13T09:08:01;9.82;;;8.43;;
39454;SDS011;25155;41.890;23.446;2023-07-13T09:10:40;8.70;;;7.13;;
39454;SDS011;25155;41.890;23.446;2023-07-13T09:13:18;8.75;;;7.22;;
39454;SDS011;25155;41.890;23.446;2023-07-13T09:15:54;7.63;;;6.13;;
39454;SDS011;25155;41.890;23.446;2023-07-13T09:18:23;11.63;;;9.25;;
39454;SDS011;25155;41.890;23.446;2023-07-13T09:20:56;7.07;;;6.35;;
39454;SDS011;25155;41.890;23.446;2023-07-13T09:23:26;8.18;;;6.80;;
39454;SDS011;25155;41.890;23.446;2023-07-13T09:25:58;8.88;;;7.95;;
39454;SDS011;25155;41.890;23.446;2023-07-13T09:28:29;8.27;;;6.93;;
39454;SDS011;25155;41.890;23.446;2023-07-13T09:31:04;7.63;;;6.43;;
39454;SDS011;25155;41.890;23.446;2023-07-13T09:33:36;7.85;;;6.65;;
39454;SDS011;25155;41.890;23.446;2023-07-13T09:36:07;9.82;;;7.75;;
39454;SDS011;25155;41.890;23.446;2023-07-13T09:38:45;9.60;;;7.22;;
39454;SDS011;25155;41.890;23.446;2023-07-13T09:41:19;7.97;;;5.90;;
39454;SDS011;25155;41.890;23.446;2023-07-13T09:44:09;10.80;;;7.50;;
39454;SDS011;25155;41.890;23.446;2023-07-13T09:46:37;8.40;;;6.75;;
39454;SDS011;25155;41.890;23.446;2023-07-13T09:49:09;7.63;;;6.25;;
39454;SDS011;25155;41.890;23.446;2023-07-13T09:51:37;9.43;;;4.32;;
39454;SDS011;25155;41.890;23.446;2023-07-13T09:54:04;8.63;;;4.05;;
39454;SDS011;25155;41.890;23.446;2023-07-13T09:56:31;6.50;;;4.00;;
39454;SDS011;25155;41.890;23.446;2023-07-13T09:58:59;6.90;;;4.45;;
39454;SDS011;25155;41.890;23.446;2023-07-13T10:01:33;9.63;;;4.10;;
39454;SDS011;25155;41.890;23.446;2023-07-13T10:04:02;7.82;;;4.97;;
39454;SDS011;25155;41.890;23.446;2023-07-13T10:06:39;8.20;;;4.47;;
39454;SDS011;25155;41.890;23.446;2023-07-13T10:09:08;7.70;;;4.85;;
39454;SDS011;25155;41.890;23.446;2023-07-13T10:11:35;7.93;;;4.10;;
39454;SDS011;25155;41.890;23.446;2023-07-13T10:14:09;7.68;;;3.92;;
39454;SDS011;25155;41.890;23.446;2023-07-13T10:16:39;6.68;;;4.20;;
39454;SDS011;25155;41.890;23.446;2023-07-13T10:19:13;10.23;;;5.60;;
39454;SDS011;25155;41.890;23.446;2023-07-13T10:21:47;8.73;;;5.47;;
39454;SDS011;25155;41.890;23.446;2023-07-13T10:24:20;7.80;;;4.55;;
39454;SDS011;25155;41.890;23.446;2023-07-13T10:26:52;8.40;;;4.68;;
39454;SDS011;25155;41.890;23.446;2023-07-13T10:29:24;6.68;;;4.00;;
39454;SDS011;25155;41.890;23.446;2023-07-13T10:31:55;6.15;;;3.67;;
39454;SDS011;25155;41.890;23.446;2023-07-13T10:34:24;7.35;;;4.00;;
39454;SDS011;25155;41.890;23.446;2023-07-13T10:36:52;5.68;;;3.38;;
39454;SDS011;25155;41.890;23.446;2023-07-13T10:39:21;7.63;;;3.90;;
39454;SDS011;25155;41.890;23.446;2023-07-13T10:41:53;9.25;;;4.00;;
39454;SDS011;25155;41.890;23.446;2023-07-13T10:44:26;8.60;;;3.90;;
39454;SDS011;25155;41.890;23.446;2023-07-13T10:46:56;4.65;;;3.10;;
39454;SDS011;25155;41.890;23.446;2023-07-13T10:49:28;7.03;;;3.60;;
39454;SDS011;25155;41.890;23.446;2023-07-13T10:51:57;6.40;;;3.85;;
39454;SDS011;25155;41.890;23.446;2023-07-13T10:54:27;8.27;;;3.80;;
39454;SDS011;25155;41.890;23.446;2023-07-13T11:02:40;13.02;;;4.30;;
39454;SDS011;25155;41.890;23.446;2023-07-13T11:05:17;8.52;;;4.25;;
39454;SDS011;25155;41.890;23.446;2023-07-13T11:07:54;7.22;;;4.10;;
39454;SDS011;25155;41.890;23.446;2023-07-13T11:22:23;11.55;;;4.30;;
39454;SDS011;25155;41.890;23.446;2023-07-13T11:25:01;6.18;;;3.83;;
39454;SDS011;25155;41.890;23.446;2023-07-13T11:27:49;7.90;;;4.03;;
39454;SDS011;25155;41.890;23.446;2023-07-13T11:30:23;7.10;;;4.05;;
39454;SDS011;25155;41.890;23.446;2023-07-13T11:33:04;7.50;;;4.15;;
39454;SDS011;25155;41.890;23.446;2023-07-13T11:35:42;9.07;;;4.00;;
39454;SDS011;25155;41.890;23.446;2023-07-13T11:38:30;9.05;;;4.10;;
39454;SDS011;25155;41.890;23.446;2023-07-13T11:41:01;9.20;;;4.45;;
39454;SDS011;25155;41.890;23.446;2023-07-13T11:43:31;9.60;;;4.60;;
39454;SDS011;25155;41.890;23.446;2023-07-13T11:46:11;9.75;;;4.22;;
39454;SDS011;25155;41.890;23.446;2023-07-13T11:48:41;10.45;;;4.78;;
39454;SDS011;25155;41.890;23.446;2023-07-13T11:51:09;10.40;;;4.40;;
39454;SDS011;25155;41.890;23.446;2023-07-13T11:53:47;12.32;;;4.72;;
39454;SDS011;25155;41.890;23.446;2023-07-13T11:56:17;11.18;;;4.40;;
39454;SDS011;25155;41.890;23.446;2023-07-13T11:58:47;14.57;;;4.50;;
39454;SDS011;25155;41.890;23.446;2023-07-13T12:01:17;14.40;;;5.35;;
39454;SDS011;25155;41.890;23.446;2023-07-13T12:03:48;12.32;;;4.78;;
39454;SDS011;25155;41.890;23.446;2023-07-13T12:06:26;7.70;;;4.35;;
39454;SDS011;25155;41.890;23.446;2023-07-13T12:09:00;9.43;;;4.55;;
39454;SDS011;25155;41.890;23.446;2023-07-13T12:11:29;10.00;;;4.30;;
39454;SDS011;25155;41.890;23.446;2023-07-13T12:13:57;9.35;;;4.68;;
39454;SDS011;25155;41.890;23.446;2023-07-13T12:16:28;12.38;;;5.03;;
39454;SDS011;25155;41.890;23.446;2023-07-13T12:18:59;9.18;;;4.90;;
39454;SDS011;25155;41.890;23.446;2023-07-13T12:21:31;8.23;;;4.20;;
39454;SDS011;25155;41.890;23.446;2023-07-13T12:24:05;9.55;;;4.30;;
39454;SDS011;25155;41.890;23.446;2023-07-13T12:26:41;11.85;;;4.45;;
39454;SDS011;25155;41.890;23.446;2023-07-13T12:29:11;7.10;;;4.50;;
39454;SDS011;25155;41.890;23.446;2023-07-13T12:31:43;9.32;;;4.90;;
39454;SDS011;25155;41.890;23.446;2023-07-13T12:34:12;7.13;;;3.83;;
39454;SDS011;25155;41.890;23.446;2023-07-13T12:36:46;9.80;;;4.53;;
39454;SDS011;25155;41.890;23.446;2023-07-13T12:39:18;9.43;;;4.50;;
39454;SDS011;25155;41.890;23.446;2023-07-13T12:41:47;9.98;;;4.25;;
39454;SDS011;25155;41.890;23.446;2023-07-13T12:44:16;10.05;;;4.70;;
39454;SDS011;25155;41.890;23.446;2023-07-13T12:46:55;10.18;;;4.57;;
39454;SDS011;25155;41.890;23.446;2023-07-13T12:49:25;11.85;;;4.72;;
39454;SDS011;25155;41.890;23.446;2023-07-13T12:51:56;9.23;;;4.20;;
39454;SDS011;25155;41.890;23.446;2023-07-13T12:54:27;9.47;;;4.77;;
39454;SDS011;25155;41.890;23.446;2023-07-13T12:56:55;10.30;;;4.30;;
39454;SDS011;25155;41.890;23.446;2023-07-13T12:59:29;15.48;;;5.40;;
39454;SDS011;25155;41.890;23.446;2023-07-13T13:02:01;11.57;;;5.30;;
39454;SDS011;25155;41.890;23.446;2023-07-13T13:04:44;11.40;;;4.90;;
39454;SDS011;25155;41.890;23.446;2023-07-13T13:07:13;14.57;;;4.60;;
39454;SDS011;25155;41.890;23.446;2023-07-13T13:09:41;13.35;;;4.45;;
39454;SDS011;25155;41.890;23.446;2023-07-13T13:12:08;39.42;;;6.40;;
39454;SDS011;25155;41.890;23.446;2023-07-13T13:14:36;13.27;;;4.38;;
39454;SDS011;25155;41.890;23.446;2023-07-13T13:17:04;13.45;;;5.10;;
39454;SDS011;25155;41.890;23.446;2023-07-13T13:19:49;10.82;;;4.45;;
39454;SDS011;25155;41.890;23.446;2023-07-13T13:22:18;14.93;;;4.95;;
39454;SDS011;25155;41.890;23.446;2023-07-13T13:24:47;12.07;;;4.72;;
39454;SDS011;25155;41.890;23.446;2023-07-13T13:27:15;20.63;;;5.30;;
39454;SDS011;25155;41.890;23.446;2023-07-13T13:29:44;14.30;;;5.47;;
39454;SDS011;25155;41.890;23.446;2023-07-13T13:32:12;14.25;;;5.18;;
39454;SDS011;25155;41.890;23.446;2023-07-13T13:34:41;10.82;;;4.53;;
39454;SDS011;25155;41.890;23.446;2023-07-13T13:37:11;8.57;;;4.50;;
39454;SDS011;25155;41.890;23.446;2023-07-13T13:39:44;11.30;;;5.20;;
39454;SDS011;25155;41.890;23.446;2023-07-13T13:42:14;12.90;;;4.55;;
39454;SDS011;25155;41.890;23.446;2023-07-13T13:44:41;11.23;;;4.57;;
39454;SDS011;25155;41.890;23.446;2023-07-13T13:47:16;11.07;;;4.75;;
39454;SDS011;25155;41.890;23.446;2023-07-13T13:49:51;16.17;;;5.00;;
39454;SDS011;25155;41.890;23.446;2023-07-13T13:52:18;13.63;;;5.18;;
39454;SDS011;25155;41.890;23.446;2023-07-13T13:54:46;14.20;;;5.00;;
39454;SDS011;25155;41.890;23.446;2023-07-13T13:57:14;7.70;;;3.92;;
39454;SDS011;25155;41.890;23.446;2023-07-13T13:59:41;10.75;;;4.78;;
39454;SDS011;25155;41.890;23.446;2023-07-13T14:02:12;9.77;;;4.85;;
39454;SDS011;25155;41.890;23.446;2023-07-13T14:04:50;9.10;;;4.70;;
39454;SDS011;25155;41.890;23.446;2023-07-13T14:07:21;9.68;;;5.20;;
39454;SDS011;25155;41.890;23.446;2023-07-13T14:09:49;14.40;;;4.78;;
39454;SDS011;25155;41.890;23.446;2023-07-13T14:12:16;12.85;;;5.00;;
39454;SDS011;25155;41.890;23.446;2023-07-13T14:14:43;7.95;;;4.20;;
39454;SDS011;25155;41.890;23.446;2023-07-13T14:17:15;13.73;;;5.10;;
39454;SDS011;25155;41.890;23.446;2023-07-13T14:19:48;11.93;;;5.05;;
39454;SDS011;25155;41.890;23.446;2023-07-13T14:22:22;9.95;;;4.50;;
39454;SDS011;25155;41.890;23.446;2023-07-13T14:24:53;9.48;;;4.90;;
39454;SDS011;25155;41.890;23.446;2023-07-13T14:27:22;7.50;;;4.15;;
39454;SDS011;25155;41.890;23.446;2023-07-13T14:29:51;9.45;;;5.20;;
39454;SDS011;25155;41.890;23.446;2023-07-13T14:32:18;12.07;;;5.32;;
39454;SDS011;25155;41.890;23.446;2023-07-13T14:34:45;9.52;;;4.18;;
39454;SDS011;25155;41.890;23.446;2023-07-13T14:37:12;10.65;;;4.65;;
39454;SDS011;25155;41.890;23.446;2023-07-13T14:39:42;9.05;;;4.82;;
39454;SDS011;25155;41.890;23.446;2023-07-13T14:42:11;7.85;;;4.70;;
39454;SDS011;25155;41.890;23.446;2023-07-13T14:44:38;8.02;;;4.47;;
39454;SDS011;25155;41.890;23.446;2023-07-13T14:47:06;10.85;;;4.50;;
39454;SDS011;25155;41.890;23.446;2023-07-13T14:49:35;11.18;;;4.43;;
39454;SDS011;25155;41.890;23.446;2023-07-13T14:52:05;10.18;;;5.75;;
39454;SDS011;25155;41.890;23.446;2023-07-13T14:54:38;10.57;;;4.25;;
39454;SDS011;25155;41.890;23.446;2023-07-13T14:57:09;9.75;;;4.35;;
39454;SDS011;25155;41.890;23.446;2023-07-13T14:59:39;10.07;;;4.50;;